createdAt,value
2019-05-02T00:04:22.689Z,9.58
2019-05-02T00:09:28.620Z,9.55
2019-05-02T00:14:34.773Z,9.53
2019-05-02T00:19:40.141Z,9.48
2019-05-02T00:24:45.682Z,9.41
2019-05-02T00:29:53.785Z,9.38
2019-05-02T00:34:58.198Z,9.31
2019-05-02T00:40:03.551Z,9.21
2019-05-02T00:45:08.735Z,9.09
2019-05-02T00:50:14.147Z,9.00
2019-05-02T00:55:19.648Z,8.87
2019-05-02T01:00:25.885Z,8.80
2019-05-02T01:05:33.861Z,8.75
2019-05-02T01:10:38.222Z,8.68
2019-05-02T01:15:44.129Z,8.60
2019-05-02T01:20:49.610Z,8.53
2019-05-02T01:25:54.872Z,8.46
2019-05-02T01:31:18.370Z,8.45
2019-05-02T01:36:28.323Z,8.43
2019-05-02T01:41:33.578Z,8.41
2019-05-02T01:46:39.101Z,8.43
2019-05-02T01:51:47.661Z,8.47
2019-05-02T01:56:51.290Z,8.43
2019-05-02T02:01:57.946Z,8.39
2019-05-02T02:07:03.437Z,8.28
2019-05-02T02:12:09.861Z,8.21
2019-05-02T02:17:17.286Z,8.11
2019-05-02T02:22:39.334Z,8.05
2019-05-02T02:27:41.412Z,8.09
2019-05-02T02:32:46.762Z,7.96
2019-05-02T02:37:55.134Z,8.03
2019-05-02T02:43:13.020Z,8.03
2019-05-02T02:48:06.074Z,8.07
2019-05-02T02:53:11.269Z,7.99
2019-05-02T02:58:16.438Z,8.08
2019-05-02T03:03:27.782Z,8.06
2019-05-02T03:08:28.486Z,8.04
2019-05-02T03:13:53.374Z,7.98
2019-05-02T03:18:57.138Z,7.89
2019-05-02T03:24:05.622Z,7.80
2019-05-02T03:29:09.582Z,7.74
2019-05-02T03:34:15.266Z,7.68
2019-05-02T03:39:20.470Z,7.69
2019-05-02T03:44:26.774Z,7.66
2019-05-02T03:49:32.604Z,7.60
2019-05-02T03:54:48.346Z,7.45
2019-05-02T03:59:44.801Z,7.31
2019-05-02T04:04:54.209Z,7.14
2019-05-02T04:09:59.008Z,7.07
2019-05-02T04:15:09.388Z,6.96
2019-05-02T04:20:12.879Z,6.81
2019-05-02T04:25:20.152Z,6.84
2019-05-02T04:30:25.309Z,6.79
2019-05-02T04:35:34.889Z,6.74
2019-05-02T04:40:41.756Z,6.79
2019-05-02T04:45:55.724Z,6.84
2019-05-02T04:51:02.017Z,6.90
2019-05-02T04:56:06.961Z,6.94
2019-05-02T05:01:10.146Z,6.99
2019-05-02T05:06:14.952Z,7.04
2019-05-02T05:11:24.719Z,7.16
2019-05-02T05:16:28.664Z,7.40
2019-05-02T05:21:34.307Z,7.56
2019-05-02T05:26:43.040Z,7.75
2019-05-02T05:31:48.366Z,7.94
2019-05-02T05:36:53.479Z,8.07
2019-05-02T05:41:58.775Z,8.25
2019-05-02T05:47:04.091Z,8.42
2019-05-02T05:52:09.466Z,8.52
2019-05-02T05:57:17.449Z,8.53
2019-05-02T06:02:22.018Z,8.58
2019-05-02T06:07:27.856Z,8.74
2019-05-02T06:12:35.547Z,8.83
2019-05-02T06:17:41.693Z,8.97
2019-05-02T06:22:46.927Z,8.97
2019-05-02T06:27:52.496Z,8.99
2019-05-02T06:32:57.903Z,8.96
2019-05-02T06:38:03.140Z,9.03
2019-05-02T06:43:09.799Z,9.14
2019-05-02T06:48:17.646Z,9.25
2019-05-02T06:53:22.835Z,9.35
2019-05-02T06:58:28.128Z,9.35
2019-05-02T07:03:33.365Z,9.45
2019-05-02T07:08:39.861Z,9.62
2019-05-02T07:13:45.200Z,9.62
2019-05-02T07:18:53.717Z,9.72
2019-05-02T07:23:59.030Z,9.83
2019-05-02T07:29:08.672Z,9.93
2019-05-02T07:34:14.208Z,10.26
2019-05-02T07:39:19.635Z,10.24
2019-05-02T07:44:27.239Z,10.32
2019-05-02T07:49:33.912Z,10.52
2019-05-02T07:54:38.882Z,10.68
2019-05-02T07:59:44.239Z,10.86
2019-05-02T08:04:50.558Z,10.95
2019-05-02T08:09:55.835Z,10.97
2019-05-02T08:15:01.812Z,11.29
2019-05-02T08:20:08.687Z,11.38
2019-05-02T08:25:15.736Z,11.33
2019-05-02T08:30:25.003Z,11.59
2019-05-02T08:35:31.220Z,11.65
2019-05-02T08:40:37.591Z,11.56
2019-05-02T08:45:42.836Z,11.77
2019-05-02T08:50:48.068Z,11.90
2019-05-02T08:55:53.313Z,12.04
2019-05-02T09:00:58.865Z,12.02
2019-05-02T09:06:05.881Z,12.09
2019-05-02T09:11:14.569Z,12.17
2019-05-02T09:16:26.444Z,12.30
2019-05-02T09:21:26.624Z,12.64
2019-05-02T09:26:37.959Z,12.58
2019-05-02T09:31:42.152Z,12.83
2019-05-02T09:36:47.338Z,13.08
2019-05-02T09:41:52.861Z,13.32
2019-05-02T09:46:58.944Z,13.35
2019-05-02T09:52:04.227Z,13.41
2019-05-02T09:57:09.472Z,13.41
2019-05-02T10:02:15.561Z,13.46
2019-05-02T10:07:22.262Z,13.70
2019-05-02T10:12:27.597Z,13.75
2019-05-02T10:17:37.521Z,13.81
2019-05-02T10:22:41.912Z,13.78
2019-05-02T10:27:49.679Z,13.86
2019-05-02T10:32:57.374Z,13.82
2019-05-02T10:38:03.173Z,14.12
2019-05-02T10:43:11.710Z,14.26
2019-05-02T10:48:25.873Z,14.40
2019-05-02T10:53:23.799Z,14.32
2019-05-02T10:58:34.125Z,14.20
2019-05-02T11:03:43.791Z,14.43
2019-05-02T11:08:47.729Z,14.49
2019-05-02T11:14:05.895Z,14.65
2019-05-02T11:19:14.273Z,14.73
2019-05-02T11:24:19.511Z,14.71
2019-05-02T11:29:25.708Z,14.79
2019-05-02T11:34:32.644Z,14.54
2019-05-02T11:39:47.791Z,14.51
2019-05-02T11:44:45.428Z,14.35
2019-05-02T11:49:55.620Z,14.90
2019-05-02T11:54:59.030Z,14.73
2019-05-02T12:00:08.836Z,14.68
2019-05-02T12:05:14.595Z,15.00
2019-05-02T12:10:21.632Z,14.79
2019-05-02T12:15:27.600Z,14.84
2019-05-02T12:20:36.494Z,14.95
2019-05-02T12:25:39.924Z,15.12
2019-05-02T12:30:45.174Z,15.65
2019-05-02T12:35:52.595Z,15.85
2019-05-02T12:40:58.060Z,15.62
2019-05-02T12:46:03.336Z,15.58
2019-05-02T12:51:08.613Z,15.69
2019-05-02T12:56:13.855Z,15.61
2019-05-02T13:01:19.119Z,15.20
2019-05-02T13:06:24.663Z,15.31
2019-05-02T13:11:43.959Z,15.07
2019-05-02T13:16:46.069Z,15.24
2019-05-02T13:22:25.433Z,15.64
2019-05-02T13:27:32.264Z,15.98
2019-05-02T13:32:39.565Z,15.97
2019-05-02T13:37:46.150Z,16.05
2019-05-02T13:42:52.361Z,15.64
2019-05-02T13:47:57.604Z,15.78
2019-05-02T13:53:02.896Z,15.60
2019-05-02T13:58:08.128Z,15.54
2019-05-02T14:03:14.052Z,15.43
2019-05-02T14:08:36.717Z,15.53
2019-05-02T14:13:39.130Z,15.40
2019-05-02T14:18:44.381Z,15.40
2019-05-02T14:23:51.685Z,15.31
2019-05-02T14:28:56.649Z,15.25
2019-05-02T14:34:21.691Z,16.00
2019-05-02T14:39:28.313Z,16.29
2019-05-02T14:45:01.379Z,16.23
2019-05-02T14:49:42.811Z,16.06
2019-05-02T14:54:48.210Z,16.46
2019-05-02T14:59:59.095Z,16.05
2019-05-02T15:05:02.034Z,15.75
2019-05-02T15:10:07.954Z,15.90
2019-05-02T15:15:13.164Z,15.74
2019-05-02T15:20:18.519Z,15.49
2019-05-02T15:25:23.759Z,15.37
2019-05-02T15:30:29.016Z,15.31
2019-05-02T15:36:07.311Z,15.38
2019-05-02T15:41:12.837Z,15.11
2019-05-02T15:46:22.757Z,15.30
2019-05-02T15:51:23.796Z,15.28
2019-05-02T15:56:29.400Z,15.58
2019-05-02T16:01:47.334Z,15.50
2019-05-02T16:06:48.896Z,15.28
2019-05-02T16:11:56.951Z,15.24
2019-05-02T16:17:03.796Z,15.16
2019-05-02T16:22:17.068Z,15.25
2019-05-02T16:27:42.101Z,15.75
2019-05-02T16:32:55.117Z,16.07
2019-05-02T16:38:00.361Z,16.19
2019-05-02T16:43:05.799Z,15.92
2019-05-02T16:48:12.041Z,15.75
2019-05-02T16:53:22.519Z,15.67
2019-05-02T16:58:24.419Z,15.40
2019-05-02T17:03:36.682Z,15.24
2019-05-02T17:09:03.974Z,14.98
2019-05-02T17:14:11.975Z,15.11
2019-05-02T17:19:17.908Z,15.21
2019-05-02T17:24:26.123Z,15.33
2019-05-02T17:29:31.752Z,15.57
2019-05-02T17:34:37.153Z,15.44
2019-05-02T17:39:46.044Z,15.56
2019-05-02T17:44:51.884Z,15.52
2019-05-02T17:49:59.086Z,15.37
2019-05-02T17:55:04.996Z,15.27
2019-05-02T18:00:16.936Z,15.20
2019-05-02T18:05:26.461Z,14.94
2019-05-02T18:10:32.180Z,14.72
2019-05-02T18:15:37.091Z,14.33
2019-05-02T18:20:46.346Z,14.12
2019-05-02T18:25:49.591Z,14.12
2019-05-02T18:31:00.325Z,13.91
2019-05-02T18:36:02.191Z,13.72
2019-05-02T18:41:07.945Z,13.63
2019-05-02T18:46:14.187Z,13.48
2019-05-02T18:51:19.423Z,13.42
2019-05-02T18:56:24.787Z,13.36
2019-05-02T19:01:32.031Z,13.32
2019-05-02T19:06:37.743Z,13.28
2019-05-02T19:11:43.007Z,13.25
2019-05-02T19:16:48.708Z,13.19
2019-05-02T19:21:54.396Z,13.10
2019-05-02T19:26:59.723Z,13.06
2019-05-02T19:32:08.498Z,12.95
2019-05-02T19:37:13.739Z,12.86
2019-05-02T19:42:22.620Z,12.72
2019-05-02T19:47:26.563Z,12.57
2019-05-02T19:52:38.925Z,12.51
2019-05-02T19:57:39.123Z,12.41
2019-05-02T20:02:44.765Z,12.28
2019-05-02T20:07:51.959Z,12.15
2019-05-02T20:12:57.385Z,12.13
2019-05-02T20:18:04.618Z,12.09
2019-05-02T20:23:17.987Z,12.04
2019-05-02T20:28:17.269Z,12.01
2019-05-02T20:33:22.717Z,11.96
2019-05-02T20:38:27.964Z,11.86
2019-05-02T20:43:33.217Z,11.90
2019-05-02T20:48:39.376Z,11.86
2019-05-02T20:53:44.961Z,11.82
2019-05-02T20:58:50.201Z,11.68
2019-05-02T21:03:56.516Z,11.55
2019-05-02T21:09:11.829Z,11.49
2019-05-02T21:14:17.810Z,11.43
2019-05-02T21:19:23.500Z,11.39
2019-05-02T21:24:28.749Z,11.35
2019-05-02T21:29:35.152Z,11.34
2019-05-02T21:34:42.507Z,11.23
2019-05-02T21:39:48.201Z,11.01
2019-05-02T21:44:55.324Z,10.60
2019-05-02T21:50:15.684Z,10.33
2019-05-02T21:55:28.257Z,10.21
2019-05-02T22:00:52.752Z,10.24
2019-05-02T22:06:00.068Z,10.09
2019-05-02T22:11:05.464Z,10.03
2019-05-02T22:16:12.767Z,10.01
2019-05-02T22:21:18.635Z,9.96
2019-05-02T22:26:25.194Z,9.89
2019-05-02T22:31:32.410Z,9.77
2019-05-02T22:36:38.169Z,9.63
2019-05-02T22:41:43.323Z,9.53
2019-05-02T22:46:48.605Z,9.62
2019-05-02T22:51:53.761Z,9.61
2019-05-02T22:56:59.002Z,9.63
2019-05-02T23:02:04.364Z,9.48
2019-05-02T23:07:09.868Z,9.40
2019-05-02T23:12:15.068Z,9.34
2019-05-02T23:17:20.686Z,9.29
2019-05-02T23:22:26.255Z,9.22
2019-05-02T23:27:42.506Z,9.24
2019-05-02T23:32:48.130Z,9.31
2019-05-02T23:37:53.714Z,9.22
2019-05-02T23:42:58.966Z,9.16
2019-05-02T23:48:05.019Z,9.12
2019-05-02T23:53:12.734Z,9.13
2019-05-02T23:58:18.193Z,9.07
